sensor_id;sensor_type;location;lat;lon;timestamp;pressure;altitude;pressure_sealevel;temperature;humidity
61472;BME280;47337;54.068;12.114;2022-08-19T00:01:32;100680.38;;;21.79;100.00
61472;BME280;47337;54.068;12.114;2022-08-19T00:04:01;100674.88;;;21.82;100.00
61472;BME280;47337;54.068;12.114;2022-08-19T00:06:33;100674.31;;;21.74;100.00
61472;BME280;47337;54.068;12.114;2022-08-19T00:08:59;100673.38;;;21.75;100.00
61472;BME280;47337;54.068;12.114;2022-08-19T00:11:25;100668.59;;;21.83;100.00
61472;BME280;47337;54.068;12.114;2022-08-19T00:13:53;100662.84;;;21.94;100.00
61472;BME280;47337;54.068;12.114;2022-08-19T00:16:23;100667.31;;;21.93;100.00
61472;BME280;47337;54.068;12.114;2022-08-19T00:18:49;100671.28;;;21.83;100.00
61472;BME280;47337;54.068;12.114;2022-08-19T00:21:14;100681.44;;;21.74;100.00
61472;BME280;47337;54.068;12.114;2022-08-19T00:23:42;100681.34;;;21.77;100.00
61472;BME280;47337;54.068;12.114;2022-08-19T00:26:09;100683.25;;;21.73;100.00
61472;BME280;47337;54.068;12.114;2022-08-19T00:28:35;100674.69;;;21.64;100.00
61472;BME280;47337;54.068;12.114;2022-08-19T00:31:06;100686.31;;;21.63;100.00
61472;BME280;47337;54.068;12.114;2022-08-19T00:33:33;100685.69;;;21.56;100.00
61472;BME280;47337;54.068;12.114;2022-08-19T00:35:59;100692.19;;;21.49;100.00
61472;BME280;47337;54.068;12.114;2022-08-19T00:38:25;100681.75;;;21.41;100.00
61472;BME280;47337;54.068;12.114;2022-08-19T00:40:50;100681.94;;;21.37;100.00
61472;BME280;47337;54.068;12.114;2022-08-19T00:43:21;100676.47;;;21.40;100.00
61472;BME280;47337;54.068;12.114;2022-08-19T00:45:50;100683.88;;;21.32;100.00
61472;BME280;47337;54.068;12.114;2022-08-19T00:48:19;100685.84;;;21.27;100.00
61472;BME280;47337;54.068;12.114;2022-08-19T00:50:48;100692.13;;;21.26;100.00
61472;BME280;47337;54.068;12.114;2022-08-19T00:53:18;100693.97;;;21.24;100.00
61472;BME280;47337;54.068;12.114;2022-08-19T00:55:48;100696.53;;;21.27;100.00
61472;BME280;47337;54.068;12.114;2022-08-19T00:58:16;100688.88;;;21.16;100.00
61472;BME280;47337;54.068;12.114;2022-08-19T01:00:43;100684.50;;;21.13;100.00
61472;BME280;47337;54.068;12.114;2022-08-19T01:03:13;100706.63;;;21.17;100.00
61472;BME280;47337;54.068;12.114;2022-08-19T01:05:41;100706.06;;;21.07;100.00
61472;BME280;47337;54.068;12.114;2022-08-19T01:08:08;100714.63;;;21.18;100.00
61472;BME280;47337;54.068;12.114;2022-08-19T01:10:41;100717.31;;;21.17;100.00
61472;BME280;47337;54.068;12.114;2022-08-19T01:13:07;100723.72;;;21.11;100.00
61472;BME280;47337;54.068;12.114;2022-08-19T01:15:41;100722.19;;;21.04;100.00
61472;BME280;47337;54.068;12.114;2022-08-19T01:18:13;100725.13;;;20.97;100.00
61472;BME280;47337;54.068;12.114;2022-08-19T01:20:41;100721.41;;;21.01;100.00
61472;BME280;47337;54.068;12.114;2022-08-19T01:23:07;100716.38;;;20.92;100.00
61472;BME280;47337;54.068;12.114;2022-08-19T01:25:39;100718.47;;;20.82;100.00
61472;BME280;47337;54.068;12.114;2022-08-19T01:28:07;100726.47;;;20.82;100.00
61472;BME280;47337;54.068;12.114;2022-08-19T01:30:34;100729.25;;;20.79;100.00
61472;BME280;47337;54.068;12.114;2022-08-19T01:33:01;100727.66;;;20.73;100.00
61472;BME280;47337;54.068;12.114;2022-08-19T01:35:28;100738.41;;;20.70;100.00
61472;BME280;47337;54.068;12.114;2022-08-19T01:38:03;100741.72;;;20.78;100.00
61472;BME280;47337;54.068;12.114;2022-08-19T01:40:32;100737.25;;;20.79;100.00
61472;BME280;47337;54.068;12.114;2022-08-19T01:42:58;100730.69;;;20.89;100.00
61472;BME280;47337;54.068;12.114;2022-08-19T01:45:26;100728.72;;;20.96;100.00
61472;BME280;47337;54.068;12.114;2022-08-19T01:47:54;100726.78;;;20.99;100.00
61472;BME280;47337;54.068;12.114;2022-08-19T01:50:20;100714.38;;;20.98;100.00
61472;BME280;47337;54.068;12.114;2022-08-19T01:52:46;100710.13;;;20.93;100.00
61472;BME280;47337;54.068;12.114;2022-08-19T01:55:15;100704.63;;;20.97;100.00
61472;BME280;47337;54.068;12.114;2022-08-19T01:57:43;100696.03;;;20.88;100.00
61472;BME280;47337;54.068;12.114;2022-08-19T02:00:12;100703.06;;;20.90;100.00
61472;BME280;47337;54.068;12.114;2022-08-19T02:02:40;100695.94;;;20.91;100.00
61472;BME280;47337;54.068;12.114;2022-08-19T02:05:06;100695.16;;;20.87;100.00
61472;BME280;47337;54.068;12.114;2022-08-19T02:07:32;100684.34;;;20.92;100.00
61472;BME280;47337;54.068;12.114;2022-08-19T02:10:10;100685.63;;;20.80;100.00
61472;BME280;47337;54.068;12.114;2022-08-19T02:12:37;100682.22;;;20.76;100.00
61472;BME280;47337;54.068;12.114;2022-08-19T02:15:03;100686.84;;;20.70;100.00
61472;BME280;47337;54.068;12.114;2022-08-19T02:17:30;100690.44;;;20.69;100.00
61472;BME280;47337;54.068;12.114;2022-08-19T02:19:56;100695.66;;;20.73;100.00
61472;BME280;47337;54.068;12.114;2022-08-19T02:22:22;100700.09;;;20.73;100.00
61472;BME280;47337;54.068;12.114;2022-08-19T02:24:48;100701.22;;;20.66;100.00
61472;BME280;47337;54.068;12.114;2022-08-19T02:27:16;100709.50;;;20.57;100.00
61472;BME280;47337;54.068;12.114;2022-08-19T02:29:42;100712.38;;;20.51;100.00
61472;BME280;47337;54.068;12.114;2022-08-19T02:32:10;100718.75;;;20.45;100.00
61472;BME280;47337;54.068;12.114;2022-08-19T02:34:35;100727.84;;;20.39;100.00
61472;BME280;47337;54.068;12.114;2022-08-19T02:37:00;100742.88;;;20.42;100.00
61472;BME280;47337;54.068;12.114;2022-08-19T02:39:26;100736.84;;;20.35;100.00
61472;BME280;47337;54.068;12.114;2022-08-19T02:41:52;100735.88;;;20.38;100.00
61472;BME280;47337;54.068;12.114;2022-08-19T02:44:22;100740.34;;;20.37;100.00
61472;BME280;47337;54.068;12.114;2022-08-19T02:46:48;100739.75;;;20.26;100.00
61472;BME280;47337;54.068;12.114;2022-08-19T02:49:17;100747.69;;;20.29;100.00
61472;BME280;47337;54.068;12.114;2022-08-19T02:51:46;100752.41;;;20.20;100.00
61472;BME280;47337;54.068;12.114;2022-08-19T02:54:14;100776.41;;;20.20;100.00
61472;BME280;47337;54.068;12.114;2022-08-19T02:56:41;100792.63;;;20.12;100.00
61472;BME280;47337;54.068;12.114;2022-08-19T02:59:06;100788.22;;;20.11;100.00
61472;BME280;47337;54.068;12.114;2022-08-19T03:01:33;100789.84;;;20.15;100.00
61472;BME280;47337;54.068;12.114;2022-08-19T03:04:07;100797.72;;;20.20;100.00
61472;BME280;47337;54.068;12.114;2022-08-19T03:06:39;100788.41;;;20.34;100.00
61472;BME280;47337;54.068;12.114;2022-08-19T03:09:05;100787.56;;;20.34;100.00
61472;BME280;47337;54.068;12.114;2022-08-19T03:11:31;100781.09;;;20.42;100.00
61472;BME280;47337;54.068;12.114;2022-08-19T03:13:58;100778.69;;;20.33;100.00
61472;BME280;47337;54.068;12.114;2022-08-19T03:16:26;100779.59;;;20.32;100.00
61472;BME280;47337;54.068;12.114;2022-08-19T03:18:55;100774.19;;;20.35;100.00
61472;BME280;47337;54.068;12.114;2022-08-19T03:21:26;100782.34;;;20.29;100.00
61472;BME280;47337;54.068;12.114;2022-08-19T03:23:59;100780.38;;;20.36;100.00
61472;BME280;47337;54.068;12.114;2022-08-19T03:26:28;100789.81;;;20.48;100.00
61472;BME280;47337;54.068;12.114;2022-08-19T03:28:53;100787.63;;;20.31;100.00
61472;BME280;47337;54.068;12.114;2022-08-19T03:31:21;100777.72;;;20.34;100.00
61472;BME280;47337;54.068;12.114;2022-08-19T03:33:48;100779.59;;;20.32;100.00
61472;BME280;47337;54.068;12.114;2022-08-19T03:36:19;100783.06;;;20.34;100.00
61472;BME280;47337;54.068;12.114;2022-08-19T03:38:48;100779.59;;;20.32;100.00
61472;BME280;47337;54.068;12.114;2022-08-19T03:41:19;100776.00;;;20.33;100.00
61472;BME280;47337;54.068;12.114;2022-08-19T03:43:45;100781.47;;;20.29;100.00
61472;BME280;47337;54.068;12.114;2022-08-19T03:46:24;100794.78;;;20.29;100.00
61472;BME280;47337;54.068;12.114;2022-08-19T03:48:54;100786.50;;;20.39;100.00
61472;BME280;47337;54.068;12.114;2022-08-19T03:51:25;100803.38;;;20.40;100.00
61472;BME280;47337;54.068;12.114;2022-08-19T03:54:00;100809.69;;;20.37;100.00
61472;BME280;47337;54.068;12.114;2022-08-19T03:56:29;100830.22;;;20.34;100.00
61472;BME280;47337;54.068;12.114;2022-08-19T03:58:57;100838.19;;;20.35;100.00
61472;BME280;47337;54.068;12.114;2022-08-19T04:01:25;100849.84;;;20.31;100.00
61472;BME280;47337;54.068;12.114;2022-08-19T04:03:55;100862.13;;;20.37;100.00
61472;BME280;47337;54.068;12.114;2022-08-19T04:06:30;100866.56;;;20.38;100.00
61472;BME280;47337;54.068;12.114;2022-08-19T04:08:57;100870.78;;;20.45;100.00
61472;BME280;47337;54.068;12.114;2022-08-19T04:11:30;100879.66;;;20.45;100.00
61472;BME280;47337;54.068;12.114;2022-08-19T04:13:56;100877.78;;;20.49;100.00
61472;BME280;47337;54.068;12.114;2022-08-19T04:16:23;100872.34;;;20.54;100.00
61472;BME280;47337;54.068;12.114;2022-08-19T04:18:49;100870.72;;;20.48;100.00
61472;BME280;47337;54.068;12.114;2022-08-19T04:21:18;100877.41;;;20.63;100.00
61472;BME280;47337;54.068;12.114;2022-08-19T04:23:44;100874.81;;;20.60;100.00
61472;BME280;47337;54.068;12.114;2022-08-19T04:26:14;100876.44;;;20.65;100.00
61472;BME280;47337;54.068;12.114;2022-08-19T04:28:41;100878.13;;;20.68;100.00
61472;BME280;47337;54.068;12.114;2022-08-19T04:31:16;100880.03;;;20.64;100.00
61472;BME280;47337;54.068;12.114;2022-08-19T04:33:44;100888.75;;;20.69;100.00
61472;BME280;47337;54.068;12.114;2022-08-19T04:36:22;100894.97;;;20.70;100.00
61472;BME280;47337;54.068;12.114;2022-08-19T04:38:49;100897.31;;;20.80;100.00
61472;BME280;47337;54.068;12.114;2022-08-19T04:41:15;100895.88;;;20.69;100.00
61472;BME280;47337;54.068;12.114;2022-08-19T04:43:59;100893.19;;;20.70;100.00
61472;BME280;47337;54.068;12.114;2022-08-19T04:46:27;100895.56;;;20.79;100.00
61472;BME280;47337;54.068;12.114;2022-08-19T04:48:54;100896.16;;;20.89;100.00
61472;BME280;47337;54.068;12.114;2022-08-19T04:51:21;100908.59;;;20.90;100.00
61472;BME280;47337;54.068;12.114;2022-08-19T04:53:50;100906.88;;;20.88;100.00
61472;BME280;47337;54.068;12.114;2022-08-19T04:56:17;100906.72;;;20.94;100.00
61472;BME280;47337;54.068;12.114;2022-08-19T04:58:44;100906.88;;;20.88;100.00
61472;BME280;47337;54.068;12.114;2022-08-19T05:01:15;100900.66;;;20.87;100.00
61472;BME280;47337;54.068;12.114;2022-08-19T05:03:42;100899.91;;;20.83;100.00
61472;BME280;47337;54.068;12.114;2022-08-19T05:06:12;100901.66;;;20.85;100.00
61472;BME280;47337;54.068;12.114;2022-08-19T05:08:39;100897.00;;;20.91;100.00
61472;BME280;47337;54.068;12.114;2022-08-19T05:11:29;100895.09;;;20.96;100.00
61472;BME280;47337;54.068;12.114;2022-08-19T05:13:56;100893.88;;;21.06;100.00
61472;BME280;47337;54.068;12.114;2022-08-19T05:16:23;100899.06;;;21.11;100.00
61472;BME280;47337;54.068;12.114;2022-08-19T05:18:49;100902.53;;;21.14;100.00
61472;BME280;47337;54.068;12.114;2022-08-19T05:21:34;100906.00;;;21.18;100.00
61472;BME280;47337;54.068;12.114;2022-08-19T05:24:19;100910.91;;;21.32;100.00
61472;BME280;47337;54.068;12.114;2022-08-19T05:26:47;100909.88;;;21.36;100.00
61472;BME280;47337;54.068;12.114;2022-08-19T05:29:14;100906.03;;;21.44;100.00
61472;BME280;47337;54.068;12.114;2022-08-19T05:31:43;100896.84;;;21.53;100.00
61472;BME280;47337;54.068;12.114;2022-08-19T05:34:09;100895.66;;;21.62;100.00
61472;BME280;47337;54.068;12.114;2022-08-19T05:36:37;100880.50;;;21.62;100.00
61472;BME280;47337;54.068;12.114;2022-08-19T05:39:08;100871.47;;;21.66;100.00
61472;BME280;47337;54.068;12.114;2022-08-19T05:41:34;100869.63;;;21.68;100.00
61472;BME280;47337;54.068;12.114;2022-08-19T05:44:04;100850.94;;;21.68;100.00
61472;BME280;47337;54.068;12.114;2022-08-19T05:46:35;100850.00;;;21.69;100.00
61472;BME280;47337;54.068;12.114;2022-08-19T05:49:07;100834.97;;;21.65;100.00
61472;BME280;47337;54.068;12.114;2022-08-19T05:51:34;100825.25;;;21.63;100.00
61472;BME280;47337;54.068;12.114;2022-08-19T05:54:04;100827.06;;;21.62;100.00
61472;BME280;47337;54.068;12.114;2022-08-19T05:56:30;100832.31;;;21.65;100.00
61472;BME280;47337;54.068;12.114;2022-08-19T05:58:57;100817.06;;;21.69;100.00
61472;BME280;47337;54.068;12.114;2022-08-19T06:01:25;100822.41;;;21.69;100.00
61472;BME280;47337;54.068;12.114;2022-08-19T06:03:50;100815.34;;;21.66;100.00
61472;BME280;47337;54.068;12.114;2022-08-19T06:06:16;100809.78;;;21.72;100.00
61472;BME280;47337;54.068;12.114;2022-08-19T06:08:42;100808.22;;;21.67;100.00
61472;BME280;47337;54.068;12.114;2022-08-19T06:11:35;100805.50;;;21.68;100.00
61472;BME280;47337;54.068;12.114;2022-08-19T06:14:06;100807.34;;;21.66;100.00
61472;BME280;47337;54.068;12.114;2022-08-19T06:16:37;100803.66;;;21.70;100.00
61472;BME280;47337;54.068;12.114;2022-08-19T06:19:06;100797.38;;;21.71;100.00
61472;BME280;47337;54.068;12.114;2022-08-19T06:21:33;100794.81;;;21.68;100.00
61472;BME280;47337;54.068;12.114;2022-08-19T06:24:00;100789.34;;;21.71;100.00
61472;BME280;47337;54.068;12.114;2022-08-19T06:26:26;100796.31;;;21.75;100.00
61472;BME280;47337;54.068;12.114;2022-08-19T06:28:52;100798.16;;;21.73;100.00
61472;BME280;47337;54.068;12.114;2022-08-19T06:31:22;100788.09;;;21.81;100.00
61472;BME280;47337;54.068;12.114;2022-08-19T06:33:49;100783.84;;;21.76;100.00
61472;BME280;47337;54.068;12.114;2022-08-19T06:36:29;100769.59;;;21.75;100.00
61472;BME280;47337;54.068;12.114;2022-08-19T06:39:04;100765.91;;;21.79;100.00
61472;BME280;47337;54.068;12.114;2022-08-19T06:41:35;100765.59;;;21.87;100.00
61472;BME280;47337;54.068;12.114;2022-08-19T06:44:05;100761.19;;;21.86;100.00
61472;BME280;47337;54.068;12.114;2022-08-19T06:46:31;100752.72;;;21.73;100.00
61472;BME280;47337;54.068;12.114;2022-08-19T06:48:59;100747.91;;;21.60;100.00
61472;BME280;47337;54.068;12.114;2022-08-19T06:51:25;100743.03;;;21.46;100.00
61472;BME280;47337;54.068;12.114;2022-08-19T06:53:54;100753.88;;;21.41;100.00
61472;BME280;47337;54.068;12.114;2022-08-19T06:56:23;100750.19;;;21.45;100.00
61472;BME280;47337;54.068;12.114;2022-08-19T06:58:50;100760.88;;;21.45;100.00
61472;BME280;47337;54.068;12.114;2022-08-19T07:01:18;100765.31;;;21.45;100.00
61472;BME280;47337;54.068;12.114;2022-08-19T07:03:46;100772.66;;;21.40;100.00
61472;BME280;47337;54.068;12.114;2022-08-19T07:06:16;100775.09;;;21.46;100.00
61472;BME280;47337;54.068;12.114;2022-08-19T07:08:44;100782.50;;;21.38;100.00
61472;BME280;47337;54.068;12.114;2022-08-19T07:11:12;100788.00;;;21.33;100.00
61472;BME280;47337;54.068;12.114;2022-08-19T07:13:39;100793.56;;;21.27;100.00
61472;BME280;47337;54.068;12.114;2022-08-19T07:16:10;100802.63;;;21.22;100.00
61472;BME280;47337;54.068;12.114;2022-08-19T07:18:36;100802.53;;;21.25;100.00
61472;BME280;47337;54.068;12.114;2022-08-19T07:21:23;100803.53;;;21.21;100.00
61472;BME280;47337;54.068;12.114;2022-08-19T07:23:51;100810.81;;;21.15;100.00
61472;BME280;47337;54.068;12.114;2022-08-19T07:26:21;100824.91;;;21.21;100.00
61472;BME280;47337;54.068;12.114;2022-08-19T07:28:48;100818.78;;;21.17;100.00
61472;BME280;47337;54.068;12.114;2022-08-19T07:31:19;100830.25;;;21.21;100.00
61472;BME280;47337;54.068;12.114;2022-08-19T07:33:47;100835.69;;;21.17;100.00
61472;BME280;47337;54.068;12.114;2022-08-19T07:36:17;100839.19;;;21.19;100.00
61472;BME280;47337;54.068;12.114;2022-08-19T07:38:44;100845.53;;;21.15;100.00
61472;BME280;47337;54.068;12.114;2022-08-19T07:41:13;100844.59;;;21.16;100.00
61472;BME280;47337;54.068;12.114;2022-08-19T07:43:40;100841.00;;;21.17;100.00
61472;BME280;47337;54.068;12.114;2022-08-19T07:46:06;100849.94;;;21.16;100.00
61472;BME280;47337;54.068;12.114;2022-08-19T07:48:31;100852.72;;;21.13;100.00
61472;BME280;47337;54.068;12.114;2022-08-19T07:51:04;100858.88;;;21.15;100.00
61472;BME280;47337;54.068;12.114;2022-08-19T07:53:32;100859.56;;;21.22;100.00
61472;BME280;47337;54.068;12.114;2022-08-19T07:55:58;100871.84;;;21.29;100.00
61472;BME280;47337;54.068;12.114;2022-08-19T07:58:30;100870.78;;;21.33;100.00
61472;BME280;47337;54.068;12.114;2022-08-19T08:00:56;100877.53;;;21.45;100.00
61472;BME280;47337;54.068;12.114;2022-08-19T08:03:22;100883.50;;;21.53;100.00
61472;BME280;47337;54.068;12.114;2022-08-19T08:06:12;100873.84;;;21.49;100.00
61472;BME280;47337;54.068;12.114;2022-08-19T08:08:56;100866.72;;;21.49;100.00
61472;BME280;47337;54.068;12.114;2022-08-19T08:11:39;100863.13;;;21.50;100.00
61472;BME280;47337;54.068;12.114;2022-08-19T08:14:06;100870.09;;;21.54;100.00
61472;BME280;47337;54.068;12.114;2022-08-19T08:16:36;100856.06;;;21.48;100.00
61472;BME280;47337;54.068;12.114;2022-08-19T08:19:05;100858.34;;;21.60;100.00
61472;BME280;47337;54.068;12.114;2022-08-19T08:21:32;100865.25;;;21.66;100.00
61472;BME280;47337;54.068;12.114;2022-08-19T08:23:58;100849.31;;;21.63;100.00
61472;BME280;47337;54.068;12.114;2022-08-19T08:26:25;100859.91;;;21.66;100.00
61472;BME280;47337;54.068;12.114;2022-08-19T08:28:53;100859.25;;;21.59;100.00
61472;BME280;47337;54.068;12.114;2022-08-19T08:31:19;100866.19;;;21.65;100.00
61472;BME280;47337;54.068;12.114;2022-08-19T08:33:46;100869.72;;;21.65;100.00
61472;BME280;47337;54.068;12.114;2022-08-19T08:36:12;100871.25;;;21.72;100.00
61472;BME280;47337;54.068;12.114;2022-08-19T08:38:40;100868.47;;;21.75;100.00
61472;BME280;47337;54.068;12.114;2022-08-19T08:43:56;100868.59;;;21.72;100.00
61472;BME280;47337;54.068;12.114;2022-08-19T08:46:48;100859.50;;;21.78;100.00
61472;BME280;47337;54.068;12.114;2022-08-19T08:52:10;100864.38;;;21.91;100.00
61472;BME280;47337;54.068;12.114;2022-08-19T08:54:42;100857.53;;;22.09;100.00
61472;BME280;47337;54.068;12.114;2022-08-19T08:57:17;100853.59;;;21.68;100.00
61472;BME280;47337;54.068;12.114;2022-08-19T08:59:48;100854.09;;;21.53;100.00
61472;BME280;47337;54.068;12.114;2022-08-19T09:02:19;100850.91;;;21.42;100.00
61472;BME280;47337;54.068;12.114;2022-08-19T09:04:45;100857.91;;;21.46;100.00
61472;BME280;47337;54.068;12.114;2022-08-19T09:09:46;100866.31;;;21.34;100.00
61472;BME280;47337;54.068;12.114;2022-08-19T09:15:09;100870.91;;;21.57;100.00
61472;BME280;47337;54.068;12.114;2022-08-19T09:17:40;100880.63;;;21.59;100.00
61472;BME280;47337;54.068;12.114;2022-08-19T09:20:16;100884.97;;;21.62;100.00
61472;BME280;47337;54.068;12.114;2022-08-19T09:22:45;100879.19;;;21.49;100.00
61472;BME280;47337;54.068;12.114;2022-08-19T09:25:18;100885.75;;;21.65;100.00
61472;BME280;47337;54.068;12.114;2022-08-19T09:27:46;100883.00;;;21.68;100.00
61472;BME280;47337;54.068;12.114;2022-08-19T09:30:21;100892.50;;;21.77;100.00
61472;BME280;47337;54.068;12.114;2022-08-19T09:32:48;100885.81;;;21.64;100.00
61472;BME280;47337;54.068;12.114;2022-08-19T09:35:14;100883.13;;;21.64;100.00
61472;BME280;47337;54.068;12.114;2022-08-19T09:37:40;100889.41;;;21.63;100.00
61472;BME280;47337;54.068;12.114;2022-08-19T09:40:08;100890.22;;;21.65;100.00
61472;BME280;47337;54.068;12.114;2022-08-19T09:42:36;100887.97;;;21.79;100.00
61472;BME280;47337;54.068;12.114;2022-08-19T09:45:03;100890.59;;;21.80;100.00
61472;BME280;47337;54.068;12.114;2022-08-19T09:47:29;100894.53;;;21.95;100.00
61472;BME280;47337;54.068;12.114;2022-08-19T09:49:55;100894.81;;;22.14;100.00
61472;BME280;47337;54.068;12.114;2022-08-19T09:52:20;100884.81;;;22.19;100.00
61472;BME280;47337;54.068;12.114;2022-08-19T09:54:45;100880.53;;;22.38;100.00
61472;BME280;47337;54.068;12.114;2022-08-19T09:57:14;100863.13;;;22.26;100.00
61472;BME280;47337;54.068;12.114;2022-08-19T10:02:05;100852.16;;;22.57;100.00
61472;BME280;47337;54.068;12.114;2022-08-19T10:04:30;100845.09;;;22.56;100.00
61472;BME280;47337;54.068;12.114;2022-08-19T10:07:18;100844.47;;;22.72;100.00
61472;BME280;47337;54.068;12.114;2022-08-19T10:09:47;100844.31;;;22.78;100.00
61472;BME280;47337;54.068;12.114;2022-08-19T10:12:12;100847.06;;;22.51;100.00
61472;BME280;47337;54.068;12.114;2022-08-19T10:14:40;100840.53;;;22.35;100.00
61472;BME280;47337;54.068;12.114;2022-08-19T10:17:06;100842.34;;;22.10;100.00
61472;BME280;47337;54.068;12.114;2022-08-19T10:19:32;100850.44;;;22.08;100.00
61472;BME280;47337;54.068;12.114;2022-08-19T10:22:03;100849.31;;;21.89;100.00
61472;BME280;47337;54.068;12.114;2022-08-19T10:24:29;100856.44;;;21.88;100.00
61472;BME280;47337;54.068;12.114;2022-08-19T10:26:56;100864.19;;;21.96;100.00
61472;BME280;47337;54.068;12.114;2022-08-19T10:29:22;100870.25;;;22.03;100.00
61472;BME280;47337;54.068;12.114;2022-08-19T10:31:47;100876.63;;;21.97;100.00
61472;BME280;47337;54.068;12.114;2022-08-19T10:34:16;100870.84;;;22.11;100.00
61472;BME280;47337;54.068;12.114;2022-08-19T10:36:42;100875.59;;;22.03;100.00
61472;BME280;47337;54.068;12.114;2022-08-19T10:39:09;100872.09;;;22.01;100.00
61472;BME280;47337;54.068;12.114;2022-08-19T10:41:37;100868.72;;;22.20;100.00
61472;BME280;47337;54.068;12.114;2022-08-19T10:44:08;100865.19;;;22.43;100.00
61472;BME280;47337;54.068;12.114;2022-08-19T10:46:37;100863.88;;;22.55;100.00
61472;BME280;47337;54.068;12.114;2022-08-19T10:49:08;100855.91;;;22.53;100.00
61472;BME280;47337;54.068;12.114;2022-08-19T10:51:34;100848.38;;;22.40;100.00
61472;BME280;47337;54.068;12.114;2022-08-19T10:54:18;100842.13;;;22.16;100.00
61472;BME280;47337;54.068;12.114;2022-08-19T10:56:44;100840.16;;;22.21;100.00
61472;BME280;47337;54.068;12.114;2022-08-19T10:59:24;100836.91;;;22.36;100.00
61472;BME280;47337;54.068;12.114;2022-08-19T11:01:53;100834.84;;;22.44;100.00
61472;BME280;47337;54.068;12.114;2022-08-19T11:04:21;100837.97;;;22.32;100.00
61472;BME280;47337;54.068;12.114;2022-08-19T11:06:48;100831.44;;;22.39;100.00
61472;BME280;47337;54.068;12.114;2022-08-19T11:09:16;100829.03;;;22.33;100.00
61472;BME280;47337;54.068;12.114;2022-08-19T11:11:42;100834.41;;;22.32;100.00
61472;BME280;47337;54.068;12.114;2022-08-19T11:14:13;100832.03;;;22.24;100.00
61472;BME280;47337;54.068;12.114;2022-08-19T11:16:41;100837.25;;;22.27;100.00
61472;BME280;47337;54.068;12.114;2022-08-19T11:19:09;100826.69;;;22.24;100.00
61472;BME280;47337;54.068;12.114;2022-08-19T11:21:37;100835.28;;;22.32;100.00
61472;BME280;47337;54.068;12.114;2022-08-19T11:24:07;100831.81;;;22.30;100.00
61472;BME280;47337;54.068;12.114;2022-08-19T11:26:34;100844.66;;;22.44;100.00
61472;BME280;47337;54.068;12.114;2022-08-19T11:29:00;100834.28;;;22.58;100.00
61472;BME280;47337;54.068;12.114;2022-08-19T11:31:28;100833.09;;;22.43;100.00
61472;BME280;47337;54.068;12.114;2022-08-19T11:33:58;100829.34;;;22.47;100.00
61472;BME280;47337;54.068;12.114;2022-08-19T11:36:25;100825.28;;;22.60;100.00
61472;BME280;47337;54.068;12.114;2022-08-19T11:38:50;100828.06;;;22.57;100.00
61472;BME280;47337;54.068;12.114;2022-08-19T11:41:18;100821.69;;;22.61;100.00
61472;BME280;47337;54.068;12.114;2022-08-19T11:43:45;100824.00;;;22.47;100.00
61472;BME280;47337;54.068;12.114;2022-08-19T11:46:13;100826.88;;;22.43;100.00
61472;BME280;47337;54.068;12.114;2022-08-19T11:48:41;100826.91;;;22.41;100.00
61472;BME280;47337;54.068;12.114;2022-08-19T11:51:10;100821.09;;;22.30;100.00
61472;BME280;47337;54.068;12.114;2022-08-19T11:53:38;100827.84;;;22.40;100.00
61472;BME280;47337;54.068;12.114;2022-08-19T11:56:07;100829.94;;;22.32;100.00
61472;BME280;47337;54.068;12.114;2022-08-19T11:58:33;100826.59;;;22.25;100.00
61472;BME280;47337;54.068;12.114;2022-08-19T12:01:00;100826.13;;;22.14;100.00
61472;BME280;47337;54.068;12.114;2022-08-19T12:03:26;100827.97;;;21.87;100.00
61472;BME280;47337;54.068;12.114;2022-08-19T12:05:51;100839.63;;;21.85;100.00
61472;BME280;47337;54.068;12.114;2022-08-19T12:08:19;100835.38;;;21.79;100.00
61472;BME280;47337;54.068;12.114;2022-08-19T12:10:48;100835.06;;;21.88;100.00
61472;BME280;47337;54.068;12.114;2022-08-19T12:13:13;100833.84;;;21.72;100.00
61472;BME280;47337;54.068;12.114;2022-08-19T12:15:45;100822.31;;;21.72;100.00
61472;BME280;47337;54.068;12.114;2022-08-19T12:18:11;100833.53;;;21.81;100.00
61472;BME280;47337;54.068;12.114;2022-08-19T12:20:40;100845.03;;;21.83;100.00
61472;BME280;47337;54.068;12.114;2022-08-19T12:23:09;100845.75;;;21.88;100.00
61472;BME280;47337;54.068;12.114;2022-08-19T12:25:37;100844.84;;;21.89;100.00
61472;BME280;47337;54.068;12.114;2022-08-19T12:28:03;100851.88;;;21.92;100.00
61472;BME280;47337;54.068;12.114;2022-08-19T12:30:29;100837.28;;;21.76;100.00
61472;BME280;47337;54.068;12.114;2022-08-19T12:33:00;100840.41;;;21.88;100.00
61472;BME280;47337;54.068;12.114;2022-08-19T12:35:25;100838.44;;;21.93;100.00
61472;BME280;47337;54.068;12.114;2022-08-19T12:37:50;100840.50;;;21.85;100.00
61472;BME280;47337;54.068;12.114;2022-08-19T12:40:16;100837.94;;;21.82;100.00
61472;BME280;47337;54.068;12.114;2022-08-19T12:42:44;100848.97;;;22.00;100.00
61472;BME280;47337;54.068;12.114;2022-08-19T12:45:14;100841.97;;;21.94;100.00
61472;BME280;47337;54.068;12.114;2022-08-19T12:47:40;100837.38;;;21.99;100.00
61472;BME280;47337;54.068;12.114;2022-08-19T12:50:06;100832.44;;;21.87;100.00
61472;BME280;47337;54.068;12.114;2022-08-19T12:52:35;100837.78;;;21.87;100.00